sensor_id;sensor_type;location;lat;lon;timestamp;P1;durP1;ratioP1;P2;durP2;ratioP2
46334;SDS011;32051;48.882;9.210;2023-08-01T00:00:01;2.65;;;2.08;;
46334;SDS011;32051;48.882;9.210;2023-08-01T00:02:36;4.88;;;2.60;;
46334;SDS011;32051;48.882;9.210;2023-08-01T00:05:02;3.83;;;2.20;;
46334;SDS011;32051;48.882;9.210;2023-08-01T00:07:28;1.75;;;1.63;;
46334;SDS011;32051;48.882;9.210;2023-08-01T00:09:55;5.75;;;2.55;;
46334;SDS011;32051;48.882;9.210;2023-08-01T00:12:21;2.78;;;2.47;;
46334;SDS011;32051;48.882;9.210;2023-08-01T00:14:47;3.80;;;2.78;;
46334;SDS011;32051;48.882;9.210;2023-08-01T00:17:13;2.97;;;2.17;;
46334;SDS011;32051;48.882;9.210;2023-08-01T00:19:39;4.78;;;2.58;;
46334;SDS011;32051;48.882;9.210;2023-08-01T00:22:05;4.00;;;2.70;;
46334;SDS011;32051;48.882;9.210;2023-08-01T00:24:31;6.07;;;3.67;;
46334;SDS011;32051;48.882;9.210;2023-08-01T00:26:57;3.78;;;2.53;;
46334;SDS011;32051;48.882;9.210;2023-08-01T00:29:23;8.80;;;2.40;;
46334;SDS011;32051;48.882;9.210;2023-08-01T00:31:49;8.70;;;3.25;;
46334;SDS011;32051;48.882;9.210;2023-08-01T00:34:15;6.95;;;2.90;;
46334;SDS011;32051;48.882;9.210;2023-08-01T00:36:41;4.78;;;2.70;;
46334;SDS011;32051;48.882;9.210;2023-08-01T00:39:08;3.83;;;2.53;;
46334;SDS011;32051;48.882;9.210;2023-08-01T00:41:34;2.85;;;2.65;;
46334;SDS011;32051;48.882;9.210;2023-08-01T00:44:00;3.83;;;2.20;;
46334;SDS011;32051;48.882;9.210;2023-08-01T00:46:26;3.70;;;2.58;;
46334;SDS011;32051;48.882;9.210;2023-08-01T00:48:53;4.32;;;3.92;;
46334;SDS011;32051;48.882;9.210;2023-08-01T00:51:22;8.00;;;3.08;;
46334;SDS011;32051;48.882;9.210;2023-08-01T00:53:49;12.02;;;3.10;;
46334;SDS011;32051;48.882;9.210;2023-08-01T00:56:17;10.10;;;2.45;;
46334;SDS011;32051;48.882;9.210;2023-08-01T00:58:44;6.57;;;3.00;;
46334;SDS011;32051;48.882;9.210;2023-08-01T01:01:10;3.03;;;2.47;;
46334;SDS011;32051;48.882;9.210;2023-08-01T01:03:36;11.02;;;3.80;;
46334;SDS011;32051;48.882;9.210;2023-08-01T01:06:12;7.80;;;2.53;;
46334;SDS011;32051;48.882;9.210;2023-08-01T01:08:43;2.53;;;2.33;;
46334;SDS011;32051;48.882;9.210;2023-08-01T01:11:10;3.15;;;2.55;;
46334;SDS011;32051;48.882;9.210;2023-08-01T01:13:36;7.43;;;2.92;;
46334;SDS011;32051;48.882;9.210;2023-08-01T01:16:02;4.38;;;2.92;;
46334;SDS011;32051;48.882;9.210;2023-08-01T01:18:28;8.70;;;2.97;;
46334;SDS011;32051;48.882;9.210;2023-08-01T01:20:54;4.60;;;2.60;;
46334;SDS011;32051;48.882;9.210;2023-08-01T01:23:20;4.70;;;3.05;;
46334;SDS011;32051;48.882;9.210;2023-08-01T01:25:49;4.13;;;2.42;;
46334;SDS011;32051;48.882;9.210;2023-08-01T01:28:15;2.63;;;2.35;;
46334;SDS011;32051;48.882;9.210;2023-08-01T01:30:41;5.25;;;3.20;;
46334;SDS011;32051;48.882;9.210;2023-08-01T01:33:08;5.50;;;2.60;;
46334;SDS011;32051;48.882;9.210;2023-08-01T01:35:34;2.97;;;2.67;;
46334;SDS011;32051;48.882;9.210;2023-08-01T01:38:01;4.28;;;3.08;;
46334;SDS011;32051;48.882;9.210;2023-08-01T01:40:32;3.25;;;3.05;;
46334;SDS011;32051;48.882;9.210;2023-08-01T01:42:58;6.03;;;2.45;;
46334;SDS011;32051;48.882;9.210;2023-08-01T01:45:25;3.63;;;3.33;;
46334;SDS011;32051;48.882;9.210;2023-08-01T01:47:51;7.63;;;3.38;;
46334;SDS011;32051;48.882;9.210;2023-08-01T01:50:17;12.93;;;3.65;;
46334;SDS011;32051;48.882;9.210;2023-08-01T01:52:44;4.63;;;3.28;;
46334;SDS011;32051;48.882;9.210;2023-08-01T01:55:10;6.53;;;3.28;;
46334;SDS011;32051;48.882;9.210;2023-08-01T01:57:37;2.70;;;2.47;;
46334;SDS011;32051;48.882;9.210;2023-08-01T02:00:04;6.82;;;3.25;;
46334;SDS011;32051;48.882;9.210;2023-08-01T02:02:38;3.72;;;3.40;;
46334;SDS011;32051;48.882;9.210;2023-08-01T02:05:04;5.97;;;4.40;;
46334;SDS011;32051;48.882;9.210;2023-08-01T02:07:30;6.75;;;3.38;;
46334;SDS011;32051;48.882;9.210;2023-08-01T02:09:57;4.18;;;3.78;;
46334;SDS011;32051;48.882;9.210;2023-08-01T02:12:23;7.68;;;3.90;;
46334;SDS011;32051;48.882;9.210;2023-08-01T02:14:49;4.50;;;3.25;;
46334;SDS011;32051;48.882;9.210;2023-08-01T02:17:15;6.03;;;4.07;;
46334;SDS011;32051;48.882;9.210;2023-08-01T02:19:41;5.47;;;4.15;;
46334;SDS011;32051;48.882;9.210;2023-08-01T02:22:07;8.77;;;4.32;;
46334;SDS011;32051;48.882;9.210;2023-08-01T02:24:33;4.70;;;3.22;;
46334;SDS011;32051;48.882;9.210;2023-08-01T02:26:59;7.40;;;3.53;;
46334;SDS011;32051;48.882;9.210;2023-08-01T02:29:25;10.57;;;4.53;;
46334;SDS011;32051;48.882;9.210;2023-08-01T02:31:51;4.18;;;3.78;;
46334;SDS011;32051;48.882;9.210;2023-08-01T02:34:18;3.53;;;3.22;;
46334;SDS011;32051;48.882;9.210;2023-08-01T02:36:44;4.40;;;3.75;;
46334;SDS011;32051;48.882;9.210;2023-08-01T02:39:10;4.70;;;3.72;;
46334;SDS011;32051;48.882;9.210;2023-08-01T02:41:36;13.48;;;4.28;;
46334;SDS011;32051;48.882;9.210;2023-08-01T02:44:03;7.07;;;3.85;;
46334;SDS011;32051;48.882;9.210;2023-08-01T02:46:29;4.30;;;4.00;;
46334;SDS011;32051;48.882;9.210;2023-08-01T02:48:56;5.40;;;3.22;;
46334;SDS011;32051;48.882;9.210;2023-08-01T02:51:22;4.57;;;4.18;;
46334;SDS011;32051;48.882;9.210;2023-08-01T02:53:48;3.53;;;3.22;;
46334;SDS011;32051;48.882;9.210;2023-08-01T02:56:14;8.25;;;4.13;;
46334;SDS011;32051;48.882;9.210;2023-08-01T02:58:40;4.15;;;3.80;;
46334;SDS011;32051;48.882;9.210;2023-08-01T03:01:07;4.22;;;3.05;;
46334;SDS011;32051;48.882;9.210;2023-08-01T03:03:38;3.70;;;3.25;;
46334;SDS011;32051;48.882;9.210;2023-08-01T03:06:04;4.07;;;3.03;;
46334;SDS011;32051;48.882;9.210;2023-08-01T03:08:30;7.57;;;4.65;;
46334;SDS011;32051;48.882;9.210;2023-08-01T03:10:57;7.95;;;2.78;;
46334;SDS011;32051;48.882;9.210;2023-08-01T03:13:23;9.75;;;4.22;;
46334;SDS011;32051;48.882;9.210;2023-08-01T03:15:49;6.35;;;2.85;;
46334;SDS011;32051;48.882;9.210;2023-08-01T03:18:15;7.07;;;3.42;;
46334;SDS011;32051;48.882;9.210;2023-08-01T03:20:41;9.35;;;3.05;;
46334;SDS011;32051;48.882;9.210;2023-08-01T03:23:07;3.65;;;2.80;;
46334;SDS011;32051;48.882;9.210;2023-08-01T03:25:33;6.22;;;2.60;;
46334;SDS011;32051;48.882;9.210;2023-08-01T03:27:59;3.42;;;3.20;;
46334;SDS011;32051;48.882;9.210;2023-08-01T03:30:27;3.72;;;3.25;;
46334;SDS011;32051;48.882;9.210;2023-08-01T03:32:54;3.47;;;2.58;;
46334;SDS011;32051;48.882;9.210;2023-08-01T03:35:20;3.53;;;3.00;;
46334;SDS011;32051;48.882;9.210;2023-08-01T03:37:46;3.58;;;3.13;;
46334;SDS011;32051;48.882;9.210;2023-08-01T03:40:12;5.47;;;3.00;;
46334;SDS011;32051;48.882;9.210;2023-08-01T03:42:38;5.57;;;2.72;;
46334;SDS011;32051;48.882;9.210;2023-08-01T03:45:05;7.97;;;3.83;;
46334;SDS011;32051;48.882;9.210;2023-08-01T03:47:31;4.90;;;2.22;;
46334;SDS011;32051;48.882;9.210;2023-08-01T03:49:57;10.00;;;3.20;;
46334;SDS011;32051;48.882;9.210;2023-08-01T03:52:25;5.85;;;3.22;;
46334;SDS011;32051;48.882;9.210;2023-08-01T03:54:55;4.75;;;3.38;;
46334;SDS011;32051;48.882;9.210;2023-08-01T03:57:21;3.35;;;3.05;;
46334;SDS011;32051;48.882;9.210;2023-08-01T03:59:47;3.22;;;2.55;;
46334;SDS011;32051;48.882;9.210;2023-08-01T04:02:13;3.30;;;3.05;;
46334;SDS011;32051;48.882;9.210;2023-08-01T04:04:39;3.85;;;3.05;;
46334;SDS011;32051;48.882;9.210;2023-08-01T04:07:05;5.25;;;2.88;;
46334;SDS011;32051;48.882;9.210;2023-08-01T04:09:31;3.03;;;2.72;;
46334;SDS011;32051;48.882;9.210;2023-08-01T04:11:57;5.38;;;2.83;;
46334;SDS011;32051;48.882;9.210;2023-08-01T04:14:23;6.90;;;2.92;;
46334;SDS011;32051;48.882;9.210;2023-08-01T04:16:49;13.38;;;2.28;;
46334;SDS011;32051;48.882;9.210;2023-08-01T04:19:15;5.57;;;2.60;;
46334;SDS011;32051;48.882;9.210;2023-08-01T04:21:41;8.65;;;2.70;;
46334;SDS011;32051;48.882;9.210;2023-08-01T04:24:08;3.53;;;2.03;;
46334;SDS011;32051;48.882;9.210;2023-08-01T04:26:34;3.55;;;2.30;;
46334;SDS011;32051;48.882;9.210;2023-08-01T04:29:01;2.90;;;2.30;;
46334;SDS011;32051;48.882;9.210;2023-08-01T04:31:28;5.07;;;2.78;;
46334;SDS011;32051;48.882;9.210;2023-08-01T04:33:54;9.20;;;2.60;;
46334;SDS011;32051;48.882;9.210;2023-08-01T04:36:20;5.82;;;2.45;;
46334;SDS011;32051;48.882;9.210;2023-08-01T04:38:46;2.25;;;2.05;;
46334;SDS011;32051;48.882;9.210;2023-08-01T04:41:13;4.28;;;1.92;;
46334;SDS011;32051;48.882;9.210;2023-08-01T04:43:39;4.38;;;3.13;;
46334;SDS011;32051;48.882;9.210;2023-08-01T04:46:05;4.15;;;2.88;;
46334;SDS011;32051;48.882;9.210;2023-08-01T04:48:31;2.35;;;2.13;;
46334;SDS011;32051;48.882;9.210;2023-08-01T04:50:57;3.53;;;2.05;;
46334;SDS011;32051;48.882;9.210;2023-08-01T04:53:23;4.07;;;2.35;;
46334;SDS011;32051;48.882;9.210;2023-08-01T04:55:49;3.33;;;2.10;;
46334;SDS011;32051;48.882;9.210;2023-08-01T04:58:16;6.38;;;2.80;;
46334;SDS011;32051;48.882;9.210;2023-08-01T05:00:42;3.88;;;2.53;;
46334;SDS011;32051;48.882;9.210;2023-08-01T05:03:08;2.38;;;2.00;;
46334;SDS011;32051;48.882;9.210;2023-08-01T05:05:34;7.72;;;2.65;;
46334;SDS011;32051;48.882;9.210;2023-08-01T05:08:00;2.15;;;1.92;;
46334;SDS011;32051;48.882;9.210;2023-08-01T05:10:26;5.40;;;2.03;;
46334;SDS011;32051;48.882;9.210;2023-08-01T05:12:52;10.63;;;2.88;;
46334;SDS011;32051;48.882;9.210;2023-08-01T05:15:18;5.00;;;2.38;;
46334;SDS011;32051;48.882;9.210;2023-08-01T05:17:44;2.20;;;2.00;;
46334;SDS011;32051;48.882;9.210;2023-08-01T05:20:10;5.65;;;2.22;;
46334;SDS011;32051;48.882;9.210;2023-08-01T05:22:36;6.03;;;2.15;;
46334;SDS011;32051;48.882;9.210;2023-08-01T05:25:02;2.60;;;1.83;;
46334;SDS011;32051;48.882;9.210;2023-08-01T05:27:30;2.90;;;1.75;;
46334;SDS011;32051;48.882;9.210;2023-08-01T05:29:56;8.57;;;2.15;;
46334;SDS011;32051;48.882;9.210;2023-08-01T05:32:22;4.60;;;2.13;;
46334;SDS011;32051;48.882;9.210;2023-08-01T05:34:48;9.93;;;1.63;;
46334;SDS011;32051;48.882;9.210;2023-08-01T05:37:14;3.75;;;2.35;;
46334;SDS011;32051;48.882;9.210;2023-08-01T05:39:40;1.50;;;1.35;;
46334;SDS011;32051;48.882;9.210;2023-08-01T05:42:06;7.85;;;3.20;;
46334;SDS011;32051;48.882;9.210;2023-08-01T05:44:34;1.80;;;1.70;;
46334;SDS011;32051;48.882;9.210;2023-08-01T05:47:00;6.10;;;2.17;;
46334;SDS011;32051;48.882;9.210;2023-08-01T05:49:26;6.18;;;2.35;;
46334;SDS011;32051;48.882;9.210;2023-08-01T05:51:53;2.70;;;1.77;;
46334;SDS011;32051;48.882;9.210;2023-08-01T05:54:19;2.42;;;2.22;;
46334;SDS011;32051;48.882;9.210;2023-08-01T05:56:45;4.45;;;2.00;;
46334;SDS011;32051;48.882;9.210;2023-08-01T05:59:11;3.03;;;2.55;;
46334;SDS011;32051;48.882;9.210;2023-08-01T06:01:37;6.68;;;2.97;;
46334;SDS011;32051;48.882;9.210;2023-08-01T06:04:03;6.60;;;2.08;;
46334;SDS011;32051;48.882;9.210;2023-08-01T06:06:29;3.10;;;1.77;;
46334;SDS011;32051;48.882;9.210;2023-08-01T06:08:55;2.65;;;2.00;;
46334;SDS011;32051;48.882;9.210;2023-08-01T06:11:22;3.55;;;2.42;;
46334;SDS011;32051;48.882;9.210;2023-08-01T06:13:48;7.07;;;2.30;;
46334;SDS011;32051;48.882;9.210;2023-08-01T06:16:14;3.13;;;1.98;;
46334;SDS011;32051;48.882;9.210;2023-08-01T06:18:40;2.63;;;2.15;;
46334;SDS011;32051;48.882;9.210;2023-08-01T06:21:06;4.35;;;2.17;;
46334;SDS011;32051;48.882;9.210;2023-08-01T06:23:32;2.22;;;2.10;;
46334;SDS011;32051;48.882;9.210;2023-08-01T06:25:58;2.35;;;2.00;;
46334;SDS011;32051;48.882;9.210;2023-08-01T06:28:24;2.47;;;2.28;;
46334;SDS011;32051;48.882;9.210;2023-08-01T06:30:50;4.40;;;2.72;;
46334;SDS011;32051;48.882;9.210;2023-08-01T06:33:16;9.90;;;2.40;;
46334;SDS011;32051;48.882;9.210;2023-08-01T06:35:42;9.23;;;3.05;;
46334;SDS011;32051;48.882;9.210;2023-08-01T06:38:08;5.35;;;3.83;;
46334;SDS011;32051;48.882;9.210;2023-08-01T06:40:34;8.43;;;3.05;;
46334;SDS011;32051;48.882;9.210;2023-08-01T06:43:00;3.95;;;3.65;;
46334;SDS011;32051;48.882;9.210;2023-08-01T06:45:27;4.80;;;3.30;;
46334;SDS011;32051;48.882;9.210;2023-08-01T06:47:53;6.63;;;4.10;;
46334;SDS011;32051;48.882;9.210;2023-08-01T06:50:19;5.22;;;2.58;;
46334;SDS011;32051;48.882;9.210;2023-08-01T06:52:45;6.43;;;4.30;;
46334;SDS011;32051;48.882;9.210;2023-08-01T06:55:11;6.57;;;4.47;;
46334;SDS011;32051;48.882;9.210;2023-08-01T06:57:37;5.32;;;3.47;;
46334;SDS011;32051;48.882;9.210;2023-08-01T07:00:03;6.38;;;3.80;;
46334;SDS011;32051;48.882;9.210;2023-08-01T07:02:29;3.60;;;3.17;;
46334;SDS011;32051;48.882;9.210;2023-08-01T07:04:55;12.00;;;3.70;;
46334;SDS011;32051;48.882;9.210;2023-08-01T07:07:21;11.85;;;5.00;;
46334;SDS011;32051;48.882;9.210;2023-08-01T07:09:47;10.55;;;3.90;;
46334;SDS011;32051;48.882;9.210;2023-08-01T07:12:14;5.65;;;4.15;;
46334;SDS011;32051;48.882;9.210;2023-08-01T07:14:40;7.25;;;4.57;;
46334;SDS011;32051;48.882;9.210;2023-08-01T07:17:06;7.28;;;3.85;;
46334;SDS011;32051;48.882;9.210;2023-08-01T07:19:32;4.13;;;3.83;;
46334;SDS011;32051;48.882;9.210;2023-08-01T07:21:58;5.53;;;5.03;;
46334;SDS011;32051;48.882;9.210;2023-08-01T07:24:24;3.70;;;3.40;;
46334;SDS011;32051;48.882;9.210;2023-08-01T07:26:50;4.53;;;3.83;;
46334;SDS011;32051;48.882;9.210;2023-08-01T07:29:16;7.22;;;4.07;;
46334;SDS011;32051;48.882;9.210;2023-08-01T07:31:42;7.45;;;4.05;;
46334;SDS011;32051;48.882;9.210;2023-08-01T07:34:08;4.28;;;3.53;;
46334;SDS011;32051;48.882;9.210;2023-08-01T07:36:34;12.65;;;3.85;;
46334;SDS011;32051;48.882;9.210;2023-08-01T07:39:00;14.23;;;4.63;;
46334;SDS011;32051;48.882;9.210;2023-08-01T07:41:27;6.57;;;3.95;;
46334;SDS011;32051;48.882;9.210;2023-08-01T07:43:53;8.27;;;4.05;;
46334;SDS011;32051;48.882;9.210;2023-08-01T07:46:19;8.30;;;4.28;;
46334;SDS011;32051;48.882;9.210;2023-08-01T07:48:45;4.47;;;4.05;;
46334;SDS011;32051;48.882;9.210;2023-08-01T07:51:11;3.90;;;2.97;;
46334;SDS011;32051;48.882;9.210;2023-08-01T07:53:37;5.28;;;4.30;;
46334;SDS011;32051;48.882;9.210;2023-08-01T07:56:03;5.15;;;3.30;;
46334;SDS011;32051;48.882;9.210;2023-08-01T07:58:32;3.65;;;3.35;;
46334;SDS011;32051;48.882;9.210;2023-08-01T08:01:05;7.90;;;4.57;;
46334;SDS011;32051;48.882;9.210;2023-08-01T08:03:31;3.47;;;3.17;;
46334;SDS011;32051;48.882;9.210;2023-08-01T08:05:58;3.33;;;2.78;;
46334;SDS011;32051;48.882;9.210;2023-08-01T08:08:24;2.97;;;2.60;;
46334;SDS011;32051;48.882;9.210;2023-08-01T08:10:50;3.30;;;3.00;;
46334;SDS011;32051;48.882;9.210;2023-08-01T08:13:16;4.05;;;2.65;;
46334;SDS011;32051;48.882;9.210;2023-08-01T08:15:42;7.45;;;2.83;;
46334;SDS011;32051;48.882;9.210;2023-08-01T08:18:08;5.00;;;2.42;;
46334;SDS011;32051;48.882;9.210;2023-08-01T08:20:40;6.45;;;2.90;;
46334;SDS011;32051;48.882;9.210;2023-08-01T08:23:07;3.33;;;2.08;;
46334;SDS011;32051;48.882;9.210;2023-08-01T08:25:33;2.95;;;1.98;;
46334;SDS011;32051;48.882;9.210;2023-08-01T08:27:59;4.70;;;1.77;;
46334;SDS011;32051;48.882;9.210;2023-08-01T08:30:25;2.47;;;2.05;;
46334;SDS011;32051;48.882;9.210;2023-08-01T08:32:51;3.75;;;2.28;;
46334;SDS011;32051;48.882;9.210;2023-08-01T08:35:17;8.10;;;2.55;;
46334;SDS011;32051;48.882;9.210;2023-08-01T08:37:43;1.70;;;1.60;;
46334;SDS011;32051;48.882;9.210;2023-08-01T08:40:10;3.10;;;1.45;;
46334;SDS011;32051;48.882;9.210;2023-08-01T08:42:36;4.40;;;2.78;;
46334;SDS011;32051;48.882;9.210;2023-08-01T08:45:02;1.88;;;1.77;;
46334;SDS011;32051;48.882;9.210;2023-08-01T08:47:30;4.30;;;1.73;;
46334;SDS011;32051;48.882;9.210;2023-08-01T08:49:56;2.38;;;1.90;;
46334;SDS011;32051;48.882;9.210;2023-08-01T08:52:24;1.90;;;1.77;;
46334;SDS011;32051;48.882;9.210;2023-08-01T08:54:50;2.88;;;1.73;;
46334;SDS011;32051;48.882;9.210;2023-08-01T08:57:17;2.95;;;2.05;;
46334;SDS011;32051;48.882;9.210;2023-08-01T08:59:44;1.77;;;1.67;;
46334;SDS011;32051;48.882;9.210;2023-08-01T09:02:11;4.28;;;1.48;;
46334;SDS011;32051;48.882;9.210;2023-08-01T09:04:37;2.47;;;1.42;;
46334;SDS011;32051;48.882;9.210;2023-08-01T09:07:05;1.70;;;1.60;;
46334;SDS011;32051;48.882;9.210;2023-08-01T09:09:33;1.52;;;1.42;;
46334;SDS011;32051;48.882;9.210;2023-08-01T09:12:00;1.58;;;1.40;;
46334;SDS011;32051;48.882;9.210;2023-08-01T09:14:26;3.38;;;1.67;;
46334;SDS011;32051;48.882;9.210;2023-08-01T09:16:52;4.18;;;1.25;;
46334;SDS011;32051;48.882;9.210;2023-08-01T09:19:19;3.42;;;1.42;;
46334;SDS011;32051;48.882;9.210;2023-08-01T09:21:45;2.15;;;1.55;;
46334;SDS011;32051;48.882;9.210;2023-08-01T09:24:21;3.47;;;2.45;;
46334;SDS011;32051;48.882;9.210;2023-08-01T09:26:47;2.95;;;2.20;;
46334;SDS011;32051;48.882;9.210;2023-08-01T09:29:15;1.15;;;1.00;;
46334;SDS011;32051;48.882;9.210;2023-08-01T09:31:42;2.60;;;1.50;;
46334;SDS011;32051;48.882;9.210;2023-08-01T09:34:19;2.85;;;1.55;;
46334;SDS011;32051;48.882;9.210;2023-08-01T09:36:45;1.20;;;1.10;;
46334;SDS011;32051;48.882;9.210;2023-08-01T09:39:15;1.05;;;0.98;;
46334;SDS011;32051;48.882;9.210;2023-08-01T09:41:41;1.40;;;1.30;;
46334;SDS011;32051;48.882;9.210;2023-08-01T09:44:16;1.25;;;1.20;;
46334;SDS011;32051;48.882;9.210;2023-08-01T09:46:43;1.40;;;1.13;;
46334;SDS011;32051;48.882;9.210;2023-08-01T09:49:09;1.25;;;1.15;;
46334;SDS011;32051;48.882;9.210;2023-08-01T09:51:46;0.90;;;0.90;;
46334;SDS011;32051;48.882;9.210;2023-08-01T09:54:13;3.00;;;0.60;;
46334;SDS011;32051;48.882;9.210;2023-08-01T09:56:39;0.70;;;0.70;;
46334;SDS011;32051;48.882;9.210;2023-08-01T09:59:07;3.45;;;0.95;;
46334;SDS011;32051;48.882;9.210;2023-08-01T10:01:33;1.33;;;1.20;;
46334;SDS011;32051;48.882;9.210;2023-08-01T10:03:59;2.65;;;0.80;;
46334;SDS011;32051;48.882;9.210;2023-08-01T10:06:28;3.95;;;1.05;;
46334;SDS011;32051;48.882;9.210;2023-08-01T10:08:57;0.77;;;0.73;;
46334;SDS011;32051;48.882;9.210;2023-08-01T10:11:23;2.65;;;1.15;;
46334;SDS011;32051;48.882;9.210;2023-08-01T10:13:50;0.85;;;0.85;;
46334;SDS011;32051;48.882;9.210;2023-08-01T10:16:16;0.95;;;0.88;;
46334;SDS011;32051;48.882;9.210;2023-08-01T10:18:42;0.63;;;0.52;;
46334;SDS011;32051;48.882;9.210;2023-08-01T10:21:09;0.60;;;0.60;;
46334;SDS011;32051;48.882;9.210;2023-08-01T10:23:37;1.10;;;0.50;;
46334;SDS011;32051;48.882;9.210;2023-08-01T10:26:05;2.92;;;0.50;;
46334;SDS011;32051;48.882;9.210;2023-08-01T10:28:32;0.50;;;0.40;;
46334;SDS011;32051;48.882;9.210;2023-08-01T10:33:33;0.75;;;0.52;;
46334;SDS011;32051;48.882;9.210;2023-08-01T10:36:00;0.43;;;0.43;;
46334;SDS011;32051;48.882;9.210;2023-08-01T10:38:26;0.75;;;0.75;;
46334;SDS011;32051;48.882;9.210;2023-08-01T10:40:52;1.02;;;0.38;;
46334;SDS011;32051;48.882;9.210;2023-08-01T10:43:22;3.47;;;0.60;;
46334;SDS011;32051;48.882;9.210;2023-08-01T10:45:48;0.50;;;0.50;;
46334;SDS011;32051;48.882;9.210;2023-08-01T10:48:14;0.45;;;0.45;;
46334;SDS011;32051;48.882;9.210;2023-08-01T10:50:40;0.77;;;0.70;;
46334;SDS011;32051;48.882;9.210;2023-08-01T10:53:07;0.40;;;0.40;;
46334;SDS011;32051;48.882;9.210;2023-08-01T10:55:41;0.52;;;0.38;;
46334;SDS011;32051;48.882;9.210;2023-08-01T10:58:07;0.73;;;0.35;;
46334;SDS011;32051;48.882;9.210;2023-08-01T11:00:33;0.38;;;0.38;;
46334;SDS011;32051;48.882;9.210;2023-08-01T11:02:59;0.50;;;0.50;;
46334;SDS011;32051;48.882;9.210;2023-08-01T11:05:25;3.15;;;0.45;;
46334;SDS011;32051;48.882;9.210;2023-08-01T11:07:57;0.70;;;0.60;;
46334;SDS011;32051;48.882;9.210;2023-08-01T11:10:24;0.47;;;0.47;;
46334;SDS011;32051;48.882;9.210;2023-08-01T11:12:51;0.30;;;0.30;;
46334;SDS011;32051;48.882;9.210;2023-08-01T11:15:18;0.93;;;0.22;;
46334;SDS011;32051;48.882;9.210;2023-08-01T11:17:48;0.80;;;0.70;;
46334;SDS011;32051;48.882;9.210;2023-08-01T11:20:15;3.97;;;0.47;;
46334;SDS011;32051;48.882;9.210;2023-08-01T11:22:55;0.65;;;0.65;;
46334;SDS011;32051;48.882;9.210;2023-08-01T11:25:38;0.50;;;0.50;;
46334;SDS011;32051;48.882;9.210;2023-08-01T11:30:31;0.40;;;0.40;;
46334;SDS011;32051;48.882;9.210;2023-08-01T11:32:58;0.50;;;0.50;;
46334;SDS011;32051;48.882;9.210;2023-08-01T11:35:24;4.68;;;0.50;;
46334;SDS011;32051;48.882;9.210;2023-08-01T11:37:50;5.60;;;1.10;;
46334;SDS011;32051;48.882;9.210;2023-08-01T11:40:17;0.57;;;0.50;;
46334;SDS011;32051;48.882;9.210;2023-08-01T11:42:47;1.27;;;0.80;;
46334;SDS011;32051;48.882;9.210;2023-08-01T11:45:16;1.90;;;0.45;;
46334;SDS011;32051;48.882;9.210;2023-08-01T11:47:46;0.85;;;0.70;;
46334;SDS011;32051;48.882;9.210;2023-08-01T11:50:13;0.60;;;0.60;;
46334;SDS011;32051;48.882;9.210;2023-08-01T11:52:39;1.77;;;0.30;;
46334;SDS011;32051;48.882;9.210;2023-08-01T11:55:05;0.55;;;0.52;;
46334;SDS011;32051;48.882;9.210;2023-08-01T11:57:31;0.85;;;0.40;;
46334;SDS011;32051;48.882;9.210;2023-08-01T11:59:57;0.57;;;0.57;;
46334;SDS011;32051;48.882;9.210;2023-08-01T12:02:27;1.08;;;0.60;;
46334;SDS011;32051;48.882;9.210;2023-08-01T12:04:57;2.20;;;0.80;;
46334;SDS011;32051;48.882;9.210;2023-08-01T12:07:26;6.15;;;0.60;;
46334;SDS011;32051;48.882;9.210;2023-08-01T12:09:57;4.88;;;0.93;;
46334;SDS011;32051;48.882;9.210;2023-08-01T12:12:25;2.75;;;0.77;;
46334;SDS011;32051;48.882;9.210;2023-08-01T12:14:52;2.15;;;0.68;;
46334;SDS011;32051;48.882;9.210;2023-08-01T12:17:18;0.68;;;0.68;;
46334;SDS011;32051;48.882;9.210;2023-08-01T12:19:44;0.85;;;0.68;;
46334;SDS011;32051;48.882;9.210;2023-08-01T12:22:11;1.70;;;0.65;;
46334;SDS011;32051;48.882;9.210;2023-08-01T12:24:37;0.60;;;0.45;;
46334;SDS011;32051;48.882;9.210;2023-08-01T12:27:07;0.93;;;0.75;;
46334;SDS011;32051;48.882;9.210;2023-08-01T12:29:33;1.95;;;1.35;;
46334;SDS011;32051;48.882;9.210;2023-08-01T12:31:59;0.45;;;0.45;;
46334;SDS011;32051;48.882;9.210;2023-08-01T12:34:26;3.22;;;0.85;;
46334;SDS011;32051;48.882;9.210;2023-08-01T12:36:52;3.28;;;0.70;;
46334;SDS011;32051;48.882;9.210;2023-08-01T12:39:18;2.90;;;0.55;;
46334;SDS011;32051;48.882;9.210;2023-08-01T12:41:45;2.58;;;0.50;;
46334;SDS011;32051;48.882;9.210;2023-08-01T12:44:11;1.13;;;0.52;;
46334;SDS011;32051;48.882;9.210;2023-08-01T12:46:40;0.70;;;0.70;;
46334;SDS011;32051;48.882;9.210;2023-08-01T12:49:07;2.42;;;1.13;;
46334;SDS011;32051;48.882;9.210;2023-08-01T12:51:33;5.43;;;0.50;;
46334;SDS011;32051;48.882;9.210;2023-08-01T12:53:59;0.50;;;0.47;;
46334;SDS011;32051;48.882;9.210;2023-08-01T12:56:25;2.90;;;1.02;;
46334;SDS011;32051;48.882;9.210;2023-08-01T12:58:51;0.60;;;0.60;;
46334;SDS011;32051;48.882;9.210;2023-08-01T13:01:17;1.40;;;1.02;;
46334;SDS011;32051;48.882;9.210;2023-08-01T13:03:43;2.17;;;1.00;;
46334;SDS011;32051;48.882;9.210;2023-08-01T13:06:10;0.50;;;0.47;;
46334;SDS011;32051;48.882;9.210;2023-08-01T13:08:37;2.47;;;0.93;;
46334;SDS011;32051;48.882;9.210;2023-08-01T13:11:09;2.90;;;0.63;;
46334;SDS011;32051;48.882;9.210;2023-08-01T13:13:35;0.90;;;0.77;;
46334;SDS011;32051;48.882;9.210;2023-08-01T13:16:01;2.63;;;0.90;;
46334;SDS011;32051;48.882;9.210;2023-08-01T13:18:28;1.63;;;0.80;;
46334;SDS011;32051;48.882;9.210;2023-08-01T13:20:56;0.65;;;0.65;;
46334;SDS011;32051;48.882;9.210;2023-08-01T13:23:22;0.70;;;0.70;;
46334;SDS011;32051;48.882;9.210;2023-08-01T13:25:49;1.17;;;0.95;;
46334;SDS011;32051;48.882;9.210;2023-08-01T13:28:15;3.20;;;0.60;;
46334;SDS011;32051;48.882;9.210;2023-08-01T13:30:41;1.35;;;0.80;;
46334;SDS011;32051;48.882;9.210;2023-08-01T13:33:07;2.58;;;0.60;;
46334;SDS011;32051;48.882;9.210;2023-08-01T13:35:33;0.80;;;0.80;;
46334;SDS011;32051;48.882;9.210;2023-08-01T13:38:00;2.60;;;0.65;;
46334;SDS011;32051;48.882;9.210;2023-08-01T13:40:26;2.47;;;0.70;;
46334;SDS011;32051;48.882;9.210;2023-08-01T13:42:52;3.30;;;0.60;;
46334;SDS011;32051;48.882;9.210;2023-08-01T13:45:18;3.72;;;0.80;;
46334;SDS011;32051;48.882;9.210;2023-08-01T13:47:44;0.98;;;0.80;;
46334;SDS011;32051;48.882;9.210;2023-08-01T13:50:10;1.25;;;0.60;;
46334;SDS011;32051;48.882;9.210;2023-08-01T13:52:37;4.00;;;0.63;;
46334;SDS011;32051;48.882;9.210;2023-08-01T13:55:03;0.73;;;0.60;;
46334;SDS011;32051;48.882;9.210;2023-08-01T13:57:29;6.13;;;0.63;;
46334;SDS011;32051;48.882;9.210;2023-08-01T13:59:56;18.10;;;0.95;;
46334;SDS011;32051;48.882;9.210;2023-08-01T14:02:22;3.55;;;0.50;;
46334;SDS011;32051;48.882;9.210;2023-08-01T14:04:50;0.52;;;0.52;;
46334;SDS011;32051;48.882;9.210;2023-08-01T14:07:17;1.88;;;1.35;;
46334;SDS011;32051;48.882;9.210;2023-08-01T14:09:43;2.70;;;1.05;;
46334;SDS011;32051;48.882;9.210;2023-08-01T14:12:10;0.85;;;0.85;;
46334;SDS011;32051;48.882;9.210;2023-08-01T14:14:36;0.70;;;0.50;;
46334;SDS011;32051;48.882;9.210;2023-08-01T14:17:02;0.95;;;0.70;;
46334;SDS011;32051;48.882;9.210;2023-08-01T14:19:28;0.50;;;0.50;;
46334;SDS011;32051;48.882;9.210;2023-08-01T14:21:55;0.80;;;0.73;;
46334;SDS011;32051;48.882;9.210;2023-08-01T14:24:22;0.90;;;0.50;;
46334;SDS011;32051;48.882;9.210;2023-08-01T14:26:48;2.25;;;0.65;;
46334;SDS011;32051;48.882;9.210;2023-08-01T14:29:16;0.50;;;0.50;;
46334;SDS011;32051;48.882;9.210;2023-08-01T14:31:43;0.63;;;0.63;;
46334;SDS011;32051;48.882;9.210;2023-08-01T14:34:09;2.67;;;0.68;;
46334;SDS011;32051;48.882;9.210;2023-08-01T14:36:36;1.75;;;0.95;;
46334;SDS011;32051;48.882;9.210;2023-08-01T14:39:02;2.65;;;0.88;;
46334;SDS011;32051;48.882;9.210;2023-08-01T14:41:28;1.70;;;0.70;;
46334;SDS011;32051;48.882;9.210;2023-08-01T14:43:54;1.15;;;0.77;;
46334;SDS011;32051;48.882;9.210;2023-08-01T14:46:20;1.00;;;0.85;;
46334;SDS011;32051;48.882;9.210;2023-08-01T14:48:46;3.05;;;0.60;;